Mead, Washington
Current Conditions -  °F | °C
As of 11:53 PM on Saturday 25 Oct 2014 (Local Time) from KSFF Reporting Station
Overcast Overcast  
Wind Chill: 55°   Ceiling: 3800
Heat Index: 55°   Visibility: 10mi
Dew Point: 41°   Wind: 32mph
Humidity: 59%   Direction: 210°SSW
Pressure: 29.64"   Gusts: 45mph
Location:  47.77°N, 117.36°W
Report Text: KSFF 260653Z AUTO 21028G39KT 10SM BKN038 OVC045 13/05 A2964 RMK AO2 PK WND 20039/0648 SLP033 T01280050
Loading
Personal Weather Stations






























Interactive Weather Map
Tropical Storm Tracking
New forecast layout! Learn more

10-Day Weather Forecast

Advertisements
Track Severe Weather on mobile